sensor_id;sensor_type;location;lat;lon;timestamp;pressure;altitude;pressure_sealevel;temperature;humidity
70571;BME280;58135;50.948;-1.458;2022-10-16T00:01:09;100285.28;;;12.55;17.43
70571;BME280;58135;50.948;-1.458;2022-10-16T00:03:34;100286.01;;;14.25;17.26
70571;BME280;58135;50.948;-1.458;2022-10-16T00:06:00;100279.25;;;14.20;17.35
70571;BME280;58135;50.948;-1.458;2022-10-16T00:08:25;100278.10;;;13.30;17.31
70571;BME280;58135;50.948;-1.458;2022-10-16T00:10:50;100278.18;;;12.29;17.33
70571;BME280;58135;50.948;-1.458;2022-10-16T00:13:16;100281.97;;;12.37;17.40
70571;BME280;58135;50.948;-1.458;2022-10-16T00:15:42;100279.77;;;13.35;17.27
70571;BME280;58135;50.948;-1.458;2022-10-16T00:18:07;100286.70;;;13.40;17.23
70571;BME280;58135;50.948;-1.458;2022-10-16T00:20:34;100283.01;;;12.58;17.29
70571;BME280;58135;50.948;-1.458;2022-10-16T00:22:58;100280.77;;;14.45;17.22
70571;BME280;58135;50.948;-1.458;2022-10-16T00:25:24;100284.16;;;13.53;17.24
70571;BME280;58135;50.948;-1.458;2022-10-16T00:27:49;100288.74;;;13.64;17.27
70571;BME280;58135;50.948;-1.458;2022-10-16T00:30:15;100301.62;;;12.77;17.07
70571;BME280;58135;50.948;-1.458;2022-10-16T00:32:41;100314.37;;;12.71;17.23
70571;BME280;58135;50.948;-1.458;2022-10-16T00:35:06;100339.73;;;12.35;17.52
70571;BME280;58135;50.948;-1.458;2022-10-16T00:37:32;100328.15;;;13.38;17.98
70571;BME280;58135;50.948;-1.458;2022-10-16T00:39:57;100323.91;;;11.70;18.51
70571;BME280;58135;50.948;-1.458;2022-10-16T00:42:22;100321.09;;;10.66;18.90
70571;BME280;58135;50.948;-1.458;2022-10-16T00:44:50;100319.13;;;11.56;19.41
70571;BME280;58135;50.948;-1.458;2022-10-16T00:47:17;100323.79;;;10.53;19.61
70571;BME280;58135;50.948;-1.458;2022-10-16T00:49:39;100325.70;;;11.37;19.59
70571;BME280;58135;50.948;-1.458;2022-10-16T00:52:05;100326.12;;;10.99;19.63
70571;BME280;58135;50.948;-1.458;2022-10-16T00:54:31;100332.56;;;12.33;19.40
70571;BME280;58135;50.948;-1.458;2022-10-16T00:56:59;100331.41;;;12.59;19.15
70571;BME280;58135;50.948;-1.458;2022-10-16T00:59:24;100324.24;;;12.71;19.13
70571;BME280;58135;50.948;-1.458;2022-10-16T01:01:46;100327.87;;;12.13;18.92
70571;BME280;58135;50.948;-1.458;2022-10-16T01:04:18;100332.63;;;13.26;19.08
70571;BME280;58135;50.948;-1.458;2022-10-16T01:06:42;100340.57;;;13.41;18.72
70571;BME280;58135;50.948;-1.458;2022-10-16T01:09:11;100342.20;;;12.51;18.66
70571;BME280;58135;50.948;-1.458;2022-10-16T01:11:34;100339.16;;;11.46;18.60
70571;BME280;58135;50.948;-1.458;2022-10-16T01:13:58;100343.61;;;14.19;18.75
70571;BME280;58135;50.948;-1.458;2022-10-16T01:16:27;100344.65;;;11.64;18.16
70571;BME280;58135;50.948;-1.458;2022-10-16T01:18:50;100347.26;;;11.65;18.70
70571;BME280;58135;50.948;-1.458;2022-10-16T01:21:14;100353.62;;;13.43;18.56
70571;BME280;58135;50.948;-1.458;2022-10-16T01:23:44;100356.16;;;11.65;18.37
70571;BME280;58135;50.948;-1.458;2022-10-16T01:26:13;100357.13;;;13.40;18.37
70571;BME280;58135;50.948;-1.458;2022-10-16T01:28:32;100356.43;;;10.68;18.42
70571;BME280;58135;50.948;-1.458;2022-10-16T01:30:55;100351.18;;;9.89;18.23
70571;BME280;58135;50.948;-1.458;2022-10-16T01:33:21;100349.23;;;11.62;18.27
70571;BME280;58135;50.948;-1.458;2022-10-16T01:35:47;100346.47;;;9.84;18.26
70571;BME280;58135;50.948;-1.458;2022-10-16T01:38:14;100350.59;;;11.60;18.25
70571;BME280;58135;50.948;-1.458;2022-10-16T01:40:38;100351.08;;;10.75;18.18
70571;BME280;58135;50.948;-1.458;2022-10-16T01:43:04;100353.36;;;12.47;18.14
70571;BME280;58135;50.948;-1.458;2022-10-16T01:45:28;100356.61;;;13.51;18.06
70571;BME280;58135;50.948;-1.458;2022-10-16T01:47:53;100356.68;;;11.77;17.95
70571;BME280;58135;50.948;-1.458;2022-10-16T01:50:19;100360.08;;;10.04;17.85
70571;BME280;58135;50.948;-1.458;2022-10-16T01:52:45;100364.71;;;12.82;17.96
70571;BME280;58135;50.948;-1.458;2022-10-16T01:55:10;100368.60;;;11.99;17.85
70571;BME280;58135;50.948;-1.458;2022-10-16T01:57:36;100368.23;;;12.82;17.79
70571;BME280;58135;50.948;-1.458;2022-10-16T02:00:04;100374.30;;;12.92;17.80
70571;BME280;58135;50.948;-1.458;2022-10-16T02:02:27;100370.57;;;13.97;17.67
70571;BME280;58135;50.948;-1.458;2022-10-16T02:04:54;100368.84;;;14.06;17.65
70571;BME280;58135;50.948;-1.458;2022-10-16T02:07:16;100368.41;;;12.29;17.60
70571;BME280;58135;50.948;-1.458;2022-10-16T02:09:42;100369.20;;;11.38;17.59
70571;BME280;58135;50.948;-1.458;2022-10-16T02:12:11;100370.24;;;13.07;17.32
70571;BME280;58135;50.948;-1.458;2022-10-16T02:14:33;100370.59;;;12.00;17.40
70571;BME280;58135;50.948;-1.458;2022-10-16T02:16:58;100373.44;;;12.76;17.58
70571;BME280;58135;50.948;-1.458;2022-10-16T02:19:24;100377.66;;;11.82;17.60
70571;BME280;58135;50.948;-1.458;2022-10-16T02:21:53;100376.45;;;10.83;17.57
70571;BME280;58135;50.948;-1.458;2022-10-16T02:24:21;100373.65;;;14.25;17.62
70571;BME280;58135;50.948;-1.458;2022-10-16T02:26:44;100370.56;;;13.24;17.60
70571;BME280;58135;50.948;-1.458;2022-10-16T02:29:12;100373.83;;;11.45;17.66
70571;BME280;58135;50.948;-1.458;2022-10-16T02:31:35;100377.41;;;14.05;17.64
70571;BME280;58135;50.948;-1.458;2022-10-16T02:33:58;100381.44;;;13.16;17.60
70571;BME280;58135;50.948;-1.458;2022-10-16T02:36:23;100386.37;;;13.08;17.55
70571;BME280;58135;50.948;-1.458;2022-10-16T02:38:49;100388.35;;;12.87;17.50
70571;BME280;58135;50.948;-1.458;2022-10-16T02:41:14;100393.78;;;11.86;17.55
70571;BME280;58135;50.948;-1.458;2022-10-16T02:43:40;100395.81;;;11.79;17.55
70571;BME280;58135;50.948;-1.458;2022-10-16T02:46:05;100398.87;;;11.78;17.60
70571;BME280;58135;50.948;-1.458;2022-10-16T02:48:31;100403.61;;;13.54;17.50
70571;BME280;58135;50.948;-1.458;2022-10-16T02:50:57;100408.19;;;10.83;17.52
70571;BME280;58135;50.948;-1.458;2022-10-16T02:53:22;100400.74;;;11.69;17.40
70571;BME280;58135;50.948;-1.458;2022-10-16T02:55:48;100404.02;;;13.38;17.47
70571;BME280;58135;50.948;-1.458;2022-10-16T02:58:13;100411.18;;;12.53;17.50
70571;BME280;58135;50.948;-1.458;2022-10-16T03:00:39;100412.84;;;12.34;17.55
70571;BME280;58135;50.948;-1.458;2022-10-16T03:03:04;100413.85;;;12.28;17.45
70571;BME280;58135;50.948;-1.458;2022-10-16T03:05:30;100416.10;;;13.87;17.52
70571;BME280;58135;50.948;-1.458;2022-10-16T03:07:55;100418.28;;;10.28;17.51
70571;BME280;58135;50.948;-1.458;2022-10-16T03:10:21;100420.11;;;12.03;17.57
70571;BME280;58135;50.948;-1.458;2022-10-16T03:12:46;100422.62;;;11.17;17.70
70571;BME280;58135;50.948;-1.458;2022-10-16T03:15:12;100425.01;;;12.06;17.75
70571;BME280;58135;50.948;-1.458;2022-10-16T03:17:37;100426.87;;;12.85;17.69
70571;BME280;58135;50.948;-1.458;2022-10-16T03:20:04;100426.20;;;11.07;17.65
70571;BME280;58135;50.948;-1.458;2022-10-16T03:22:29;100428.28;;;11.00;17.61
70571;BME280;58135;50.948;-1.458;2022-10-16T03:24:54;100430.00;;;13.55;17.56
70571;BME280;58135;50.948;-1.458;2022-10-16T03:27:20;100432.50;;;12.55;17.54
70571;BME280;58135;50.948;-1.458;2022-10-16T03:29:45;100437.49;;;11.54;17.66
70571;BME280;58135;50.948;-1.458;2022-10-16T03:32:10;100439.00;;;12.42;17.62
70571;BME280;58135;50.948;-1.458;2022-10-16T03:34:39;100441.31;;;12.44;17.70
70571;BME280;58135;50.948;-1.458;2022-10-16T03:37:01;100443.13;;;11.52;17.75
70571;BME280;58135;50.948;-1.458;2022-10-16T03:39:26;100448.82;;;11.60;17.82
70571;BME280;58135;50.948;-1.458;2022-10-16T03:41:52;100454.31;;;10.64;17.80
70571;BME280;58135;50.948;-1.458;2022-10-16T03:44:17;100452.55;;;10.59;17.32
70571;BME280;58135;50.948;-1.458;2022-10-16T03:46:43;100452.18;;;11.34;17.74
70571;BME280;58135;50.948;-1.458;2022-10-16T03:49:09;100454.87;;;11.33;17.82
70571;BME280;58135;50.948;-1.458;2022-10-16T03:51:34;100456.90;;;12.23;17.79
70571;BME280;58135;50.948;-1.458;2022-10-16T03:53:59;100457.78;;;11.26;17.68
70571;BME280;58135;50.948;-1.458;2022-10-16T03:56:25;100462.14;;;12.03;17.69
70571;BME280;58135;50.948;-1.458;2022-10-16T03:58:51;100466.98;;;12.79;17.63
70571;BME280;58135;50.948;-1.458;2022-10-16T04:01:16;100472.27;;;11.80;17.74
70571;BME280;58135;50.948;-1.458;2022-10-16T04:03:42;100477.22;;;11.80;17.85
70571;BME280;58135;50.948;-1.458;2022-10-16T04:06:07;100481.06;;;11.83;17.59
70571;BME280;58135;50.948;-1.458;2022-10-16T04:08:33;100489.55;;;12.69;17.68
70571;BME280;58135;50.948;-1.458;2022-10-16T04:10:58;100494.36;;;10.16;17.86
70571;BME280;58135;50.948;-1.458;2022-10-16T04:13:24;100497.04;;;13.80;17.68
70571;BME280;58135;50.948;-1.458;2022-10-16T04:15:49;100498.71;;;13.80;17.80
70571;BME280;58135;50.948;-1.458;2022-10-16T04:18:15;100501.42;;;12.86;17.60
70571;BME280;58135;50.948;-1.458;2022-10-16T04:20:40;100508.03;;;11.87;17.44
70571;BME280;58135;50.948;-1.458;2022-10-16T04:23:06;100511.13;;;10.98;17.66
70571;BME280;58135;50.948;-1.458;2022-10-16T04:25:32;100511.26;;;10.14;17.73
70571;BME280;58135;50.948;-1.458;2022-10-16T04:27:57;100510.78;;;11.12;17.63
70571;BME280;58135;50.948;-1.458;2022-10-16T04:30:23;100513.76;;;11.99;17.62
70571;BME280;58135;50.948;-1.458;2022-10-16T04:32:48;100518.07;;;12.76;17.57
70571;BME280;58135;50.948;-1.458;2022-10-16T04:35:14;100521.38;;;12.55;17.49
70571;BME280;58135;50.948;-1.458;2022-10-16T04:37:39;100521.51;;;13.42;17.51
70571;BME280;58135;50.948;-1.458;2022-10-16T04:40:06;100524.62;;;11.65;17.71
70571;BME280;58135;50.948;-1.458;2022-10-16T04:42:30;100528.42;;;11.48;17.77
70571;BME280;58135;50.948;-1.458;2022-10-16T04:44:56;100529.06;;;12.31;17.53
70571;BME280;58135;50.948;-1.458;2022-10-16T04:47:22;100533.53;;;11.39;17.66
70571;BME280;58135;50.948;-1.458;2022-10-16T04:49:47;100542.14;;;13.00;17.59
70571;BME280;58135;50.948;-1.458;2022-10-16T04:52:13;100548.07;;;10.31;17.60
70571;BME280;58135;50.948;-1.458;2022-10-16T04:54:39;100549.09;;;11.21;17.53
70571;BME280;58135;50.948;-1.458;2022-10-16T04:57:04;100551.74;;;11.16;17.46
70571;BME280;58135;50.948;-1.458;2022-10-16T04:59:30;100554.59;;;11.07;17.42
70571;BME280;58135;50.948;-1.458;2022-10-16T05:01:56;100557.31;;;12.80;17.20
70571;BME280;58135;50.948;-1.458;2022-10-16T05:04:21;100561.40;;;10.91;17.35
70571;BME280;58135;50.948;-1.458;2022-10-16T05:06:47;100562.49;;;11.68;17.19
70571;BME280;58135;50.948;-1.458;2022-10-16T05:09:12;100561.95;;;11.55;17.40
70571;BME280;58135;50.948;-1.458;2022-10-16T05:11:37;100566.20;;;11.52;17.43
70571;BME280;58135;50.948;-1.458;2022-10-16T05:14:03;100571.33;;;11.50;17.39
70571;BME280;58135;50.948;-1.458;2022-10-16T05:16:29;100574.91;;;10.54;17.39
70571;BME280;58135;50.948;-1.458;2022-10-16T05:18:54;100569.36;;;12.24;17.33
70571;BME280;58135;50.948;-1.458;2022-10-16T05:21:20;100576.03;;;10.51;17.31
70571;BME280;58135;50.948;-1.458;2022-10-16T05:23:45;100578.44;;;11.33;17.16
70571;BME280;58135;50.948;-1.458;2022-10-16T05:26:11;100586.27;;;11.22;17.17
70571;BME280;58135;50.948;-1.458;2022-10-16T05:28:37;100593.33;;;11.17;17.21
70571;BME280;58135;50.948;-1.458;2022-10-16T05:31:04;100598.18;;;8.48;17.13
70571;BME280;58135;50.948;-1.458;2022-10-16T05:33:28;100602.82;;;12.85;17.01
70571;BME280;58135;50.948;-1.458;2022-10-16T05:35:54;100610.00;;;10.86;16.92
70571;BME280;58135;50.948;-1.458;2022-10-16T05:38:19;100613.99;;;12.45;16.70
70571;BME280;58135;50.948;-1.458;2022-10-16T05:40:50;100614.61;;;10.57;17.14
70571;BME280;58135;50.948;-1.458;2022-10-16T05:43:10;100621.21;;;11.57;17.24
70571;BME280;58135;50.948;-1.458;2022-10-16T05:45:36;100621.09;;;10.77;17.20
70571;BME280;58135;50.948;-1.458;2022-10-16T05:48:01;100626.63;;;11.62;17.22
70571;BME280;58135;50.948;-1.458;2022-10-16T05:50:27;100629.20;;;10.76;17.23
70571;BME280;58135;50.948;-1.458;2022-10-16T05:52:53;100629.66;;;9.86;17.30
70571;BME280;58135;50.948;-1.458;2022-10-16T05:55:18;100628.85;;;11.45;17.36
70571;BME280;58135;50.948;-1.458;2022-10-16T05:57:44;100628.39;;;10.45;17.15
70571;BME280;58135;50.948;-1.458;2022-10-16T06:00:10;100631.32;;;11.25;17.09
70571;BME280;58135;50.948;-1.458;2022-10-16T06:02:35;100637.66;;;11.22;17.17
70571;BME280;58135;50.948;-1.458;2022-10-16T06:05:01;100641.29;;;11.29;17.31
70571;BME280;58135;50.948;-1.458;2022-10-16T06:07:27;100643.20;;;9.55;17.32
70571;BME280;58135;50.948;-1.458;2022-10-16T06:09:52;100645.00;;;9.50;17.37
70571;BME280;58135;50.948;-1.458;2022-10-16T06:12:18;100647.13;;;9.48;17.42
70571;BME280;58135;50.948;-1.458;2022-10-16T06:14:44;100646.83;;;11.17;17.43
70571;BME280;58135;50.948;-1.458;2022-10-16T06:17:09;100643.98;;;10.13;17.08
70571;BME280;58135;50.948;-1.458;2022-10-16T06:19:35;100643.68;;;11.81;17.38
70571;BME280;58135;50.948;-1.458;2022-10-16T06:22:00;100645.85;;;10.10;17.34
70571;BME280;58135;50.948;-1.458;2022-10-16T06:24:26;100647.26;;;11.67;17.26
70571;BME280;58135;50.948;-1.458;2022-10-16T06:26:52;100647.94;;;11.62;17.17
70571;BME280;58135;50.948;-1.458;2022-10-16T06:29:17;100648.76;;;9.70;17.47
70571;BME280;58135;50.948;-1.458;2022-10-16T06:31:42;100657.85;;;11.52;17.24
70571;BME280;58135;50.948;-1.458;2022-10-16T06:34:09;100664.90;;;11.56;17.16
70571;BME280;58135;50.948;-1.458;2022-10-16T06:36:33;100669.02;;;10.62;17.36
70571;BME280;58135;50.948;-1.458;2022-10-16T06:38:59;100671.33;;;9.73;17.37
70571;BME280;58135;50.948;-1.458;2022-10-16T06:41:25;100672.02;;;9.76;17.34
70571;BME280;58135;50.948;-1.458;2022-10-16T06:43:50;100673.57;;;11.52;17.31
70571;BME280;58135;50.948;-1.458;2022-10-16T06:46:17;100673.77;;;10.62;17.28
70571;BME280;58135;50.948;-1.458;2022-10-16T06:48:41;100676.78;;;9.67;17.21
70571;BME280;58135;50.948;-1.458;2022-10-16T06:51:10;100680.10;;;11.33;16.80
70571;BME280;58135;50.948;-1.458;2022-10-16T06:53:34;100681.80;;;10.40;17.34
70571;BME280;58135;50.948;-1.458;2022-10-16T06:56:06;100682.94;;;10.44;17.20
70571;BME280;58135;50.948;-1.458;2022-10-16T06:58:23;100682.30;;;12.21;17.14
70571;BME280;58135;50.948;-1.458;2022-10-16T07:00:55;100685.69;;;11.17;17.75
70571;BME280;58135;50.948;-1.458;2022-10-16T07:03:15;100687.64;;;12.22;17.70
70571;BME280;58135;50.948;-1.458;2022-10-16T07:05:41;100685.74;;;10.51;17.65
70571;BME280;58135;50.948;-1.458;2022-10-16T07:08:06;100690.22;;;11.37;17.65
70571;BME280;58135;50.948;-1.458;2022-10-16T07:10:31;100697.48;;;11.33;17.63
70571;BME280;58135;50.948;-1.458;2022-10-16T07:12:57;100706.05;;;11.39;17.66
70571;BME280;58135;50.948;-1.458;2022-10-16T07:15:23;100710.07;;;7.72;17.48
70571;BME280;58135;50.948;-1.458;2022-10-16T07:17:48;100713.14;;;10.38;17.52
70571;BME280;58135;50.948;-1.458;2022-10-16T07:20:14;100713.85;;;10.49;17.65
70571;BME280;58135;50.948;-1.458;2022-10-16T07:22:39;100717.76;;;9.78;17.65
70571;BME280;58135;50.948;-1.458;2022-10-16T07:25:06;100714.60;;;10.70;17.39
70571;BME280;58135;50.948;-1.458;2022-10-16T07:27:30;100714.50;;;11.59;17.56
70571;BME280;58135;50.948;-1.458;2022-10-16T07:29:56;100717.83;;;8.17;17.47
70571;BME280;58135;50.948;-1.458;2022-10-16T07:32:22;100721.15;;;11.92;17.48
70571;BME280;58135;50.948;-1.458;2022-10-16T07:34:47;100723.24;;;11.09;17.44
70571;BME280;58135;50.948;-1.458;2022-10-16T07:37:13;100730.89;;;11.20;17.47
70571;BME280;58135;50.948;-1.458;2022-10-16T07:39:39;100736.98;;;11.27;17.50
70571;BME280;58135;50.948;-1.458;2022-10-16T07:42:04;100743.93;;;12.22;17.48
70571;BME280;58135;50.948;-1.458;2022-10-16T07:44:30;100744.49;;;11.32;17.22
70571;BME280;58135;50.948;-1.458;2022-10-16T07:46:55;100743.59;;;11.35;17.57
70571;BME280;58135;50.948;-1.458;2022-10-16T07:49:21;100743.49;;;10.56;17.37
70571;BME280;58135;50.948;-1.458;2022-10-16T07:51:46;100746.84;;;10.68;17.80
70571;BME280;58135;50.948;-1.458;2022-10-16T07:54:12;100748.11;;;9.97;17.79
70571;BME280;58135;50.948;-1.458;2022-10-16T07:56:38;100745.93;;;11.00;17.89
70571;BME280;58135;50.948;-1.458;2022-10-16T07:59:03;100751.81;;;12.11;18.00
70571;BME280;58135;50.948;-1.458;2022-10-16T08:01:29;100754.74;;;9.66;17.91
70571;BME280;58135;50.948;-1.458;2022-10-16T08:03:54;100757.32;;;11.45;17.96
70571;BME280;58135;50.948;-1.458;2022-10-16T08:06:21;100756.73;;;10.65;17.86
70571;BME280;58135;50.948;-1.458;2022-10-16T08:08:46;100753.27;;;10.82;17.91
70571;BME280;58135;50.948;-1.458;2022-10-16T08:11:11;100753.27;;;12.64;17.70
70571;BME280;58135;50.948;-1.458;2022-10-16T08:13:37;100754.09;;;11.18;18.31
70571;BME280;58135;50.948;-1.458;2022-10-16T08:16:03;100755.14;;;10.53;18.13
70571;BME280;58135;50.948;-1.458;2022-10-16T08:18:28;100755.03;;;11.64;18.40
70571;BME280;58135;50.948;-1.458;2022-10-16T08:20:57;100761.41;;;12.84;18.15
70571;BME280;58135;50.948;-1.458;2022-10-16T08:23:19;100768.87;;;12.10;17.88
70571;BME280;58135;50.948;-1.458;2022-10-16T08:25:44;100779.30;;;12.25;18.37
70571;BME280;58135;50.948;-1.458;2022-10-16T08:28:10;100785.65;;;10.87;18.53
70571;BME280;58135;50.948;-1.458;2022-10-16T08:30:36;100789.11;;;13.05;18.57
70571;BME280;58135;50.948;-1.458;2022-10-16T08:33:01;100793.38;;;12.40;18.57
70571;BME280;58135;50.948;-1.458;2022-10-16T08:35:27;100795.77;;;11.70;18.62
70571;BME280;58135;50.948;-1.458;2022-10-16T08:37:52;100797.36;;;12.83;18.68
70571;BME280;58135;50.948;-1.458;2022-10-16T08:40:20;100796.67;;;13.13;18.61
70571;BME280;58135;50.948;-1.458;2022-10-16T08:42:55;100797.69;;;12.49;18.60
70571;BME280;58135;50.948;-1.458;2022-10-16T08:45:21;100795.78;;;13.62;18.57
70571;BME280;58135;50.948;-1.458;2022-10-16T08:47:42;100798.61;;;11.18;18.48
70571;BME280;58135;50.948;-1.458;2022-10-16T08:50:10;100802.16;;;11.40;18.45
70571;BME280;58135;50.948;-1.458;2022-10-16T08:52:29;100803.31;;;13.38;18.44
70571;BME280;58135;50.948;-1.458;2022-10-16T08:54:53;100804.12;;;14.26;18.16
70571;BME280;58135;50.948;-1.458;2022-10-16T08:57:19;100801.93;;;13.47;18.00
70571;BME280;58135;50.948;-1.458;2022-10-16T08:59:48;100804.11;;;14.53;18.31
70571;BME280;58135;50.948;-1.458;2022-10-16T09:02:24;100807.79;;;13.81;18.32
70571;BME280;58135;50.948;-1.458;2022-10-16T09:04:48;100804.41;;;12.16;18.33
70571;BME280;58135;50.948;-1.458;2022-10-16T09:07:01;100803.40;;;12.30;18.36
70571;BME280;58135;50.948;-1.458;2022-10-16T09:09:36;100805.93;;;13.33;18.32
70571;BME280;58135;50.948;-1.458;2022-10-16T09:11:54;100805.63;;;13.46;18.28
70571;BME280;58135;50.948;-1.458;2022-10-16T09:14:33;100804.83;;;12.65;18.15
70571;BME280;58135;50.948;-1.458;2022-10-16T09:16:44;100806.18;;;12.79;18.32
70571;BME280;58135;50.948;-1.458;2022-10-16T09:19:13;100810.38;;;12.93;18.50
70571;BME280;58135;50.948;-1.458;2022-10-16T09:21:36;100814.84;;;13.18;18.48
70571;BME280;58135;50.948;-1.458;2022-10-16T09:24:00;100814.67;;;14.21;18.49
70571;BME280;58135;50.948;-1.458;2022-10-16T09:26:23;100814.34;;;14.39;18.43
70571;BME280;58135;50.948;-1.458;2022-10-16T09:28:48;100816.09;;;11.78;18.53
70571;BME280;58135;50.948;-1.458;2022-10-16T09:31:18;100819.53;;;14.62;18.46
70571;BME280;58135;50.948;-1.458;2022-10-16T09:33:40;100822.67;;;14.78;18.47
70571;BME280;58135;50.948;-1.458;2022-10-16T09:36:05;100824.86;;;15.80;18.53
70571;BME280;58135;50.948;-1.458;2022-10-16T09:38:31;100829.67;;;11.50;18.24
70571;BME280;58135;50.948;-1.458;2022-10-16T09:40:56;100834.13;;;13.33;18.49
70571;BME280;58135;50.948;-1.458;2022-10-16T09:43:24;100832.72;;;14.35;18.47
70571;BME280;58135;50.948;-1.458;2022-10-16T09:45:55;100836.74;;;14.52;18.17
70571;BME280;58135;50.948;-1.458;2022-10-16T09:48:17;100838.07;;;11.99;18.10
70571;BME280;58135;50.948;-1.458;2022-10-16T09:50:37;100835.68;;;13.93;18.20
70571;BME280;58135;50.948;-1.458;2022-10-16T09:53:05;100836.79;;;13.35;18.09
70571;BME280;58135;50.948;-1.458;2022-10-16T09:55:28;100838.20;;;14.36;18.08
70571;BME280;58135;50.948;-1.458;2022-10-16T09:57:54;100840.94;;;15.51;18.16
70571;BME280;58135;50.948;-1.458;2022-10-16T10:00:20;100837.62;;;14.82;18.21
70571;BME280;58135;50.948;-1.458;2022-10-16T10:02:45;100841.23;;;15.96;18.15
70571;BME280;58135;50.948;-1.458;2022-10-16T10:05:18;100838.76;;;13.55;18.04
70571;BME280;58135;50.948;-1.458;2022-10-16T10:07:38;100835.13;;;13.60;17.89
70571;BME280;58135;50.948;-1.458;2022-10-16T10:10:02;100833.06;;;14.63;18.07
70571;BME280;58135;50.948;-1.458;2022-10-16T10:12:27;100832.41;;;15.66;17.56
70571;BME280;58135;50.948;-1.458;2022-10-16T10:14:52;100829.80;;;15.67;17.67
70571;BME280;58135;50.948;-1.458;2022-10-16T10:17:19;100826.95;;;15.07;17.82
70571;BME280;58135;50.948;-1.458;2022-10-16T10:19:48;100825.97;;;13.61;17.67
70571;BME280;58135;50.948;-1.458;2022-10-16T10:22:16;100827.16;;;13.77;17.55
70571;BME280;58135;50.948;-1.458;2022-10-16T10:24:33;100825.17;;;14.84;17.28
70571;BME280;58135;50.948;-1.458;2022-10-16T10:27:05;100828.78;;;16.90;17.33
70571;BME280;58135;50.948;-1.458;2022-10-16T10:29:34;100830.76;;;15.39;17.28
70571;BME280;58135;50.948;-1.458;2022-10-16T10:31:55;100830.16;;;14.58;17.09
70571;BME280;58135;50.948;-1.458;2022-10-16T10:34:26;100823.35;;;15.58;16.81
70571;BME280;58135;50.948;-1.458;2022-10-16T10:36:41;100820.45;;;13.96;17.18
70571;BME280;58135;50.948;-1.458;2022-10-16T10:39:09;100819.14;;;14.99;17.01
70571;BME280;58135;50.948;-1.458;2022-10-16T10:44:05;100811.28;;;15.12;16.78
70571;BME280;58135;50.948;-1.458;2022-10-16T10:46:28;100812.64;;;17.95;16.39
70571;BME280;58135;50.948;-1.458;2022-10-16T10:49:01;100817.84;;;17.40;16.81
70571;BME280;58135;50.948;-1.458;2022-10-16T10:51:20;100819.10;;;16.63;16.95
70571;BME280;58135;50.948;-1.458;2022-10-16T10:53:44;100815.71;;;15.93;17.06
70571;BME280;58135;50.948;-1.458;2022-10-16T10:56:15;100815.81;;;16.10;16.61
70571;BME280;58135;50.948;-1.458;2022-10-16T10:58:43;100819.44;;;15.41;16.48
70571;BME280;58135;50.948;-1.458;2022-10-16T11:01:01;100822.24;;;15.68;16.65
70571;BME280;58135;50.948;-1.458;2022-10-16T11:03:35;100816.84;;;17.48;16.41
70571;BME280;58135;50.948;-1.458;2022-10-16T11:05:50;100813.50;;;15.61;16.15
70571;BME280;58135;50.948;-1.458;2022-10-16T11:08:17;100811.16;;;14.90;16.27
70571;BME280;58135;50.948;-1.458;2022-10-16T11:10:46;100811.70;;;15.95;16.38
70571;BME280;58135;50.948;-1.458;2022-10-16T11:13:13;100812.83;;;15.16;16.49
70571;BME280;58135;50.948;-1.458;2022-10-16T11:15:31;100814.09;;;16.32;16.58
70571;BME280;58135;50.948;-1.458;2022-10-16T11:18:00;100814.20;;;16.35;16.62
70571;BME280;58135;50.948;-1.458;2022-10-16T11:20:23;100805.06;;;15.50;16.67
70571;BME280;58135;50.948;-1.458;2022-10-16T11:22:48;100805.31;;;15.65;16.68
70571;BME280;58135;50.948;-1.458;2022-10-16T11:25:14;100809.60;;;15.78;16.75
70571;BME280;58135;50.948;-1.458;2022-10-16T11:27:40;100812.61;;;15.84;16.68
70571;BME280;58135;50.948;-1.458;2022-10-16T11:30:05;100819.20;;;16.96;16.75
70571;BME280;58135;50.948;-1.458;2022-10-16T11:32:32;100817.73;;;18.89;16.79
70571;BME280;58135;50.948;-1.458;2022-10-16T11:34:57;100821.03;;;15.31;16.62
70571;BME280;58135;50.948;-1.458;2022-10-16T11:37:21;100823.02;;;17.29;16.58
70571;BME280;58135;50.948;-1.458;2022-10-16T11:39:44;100826.46;;;16.63;16.45
70571;BME280;58135;50.948;-1.458;2022-10-16T11:42:11;100823.07;;;16.70;16.47
70571;BME280;58135;50.948;-1.458;2022-10-16T11:44:45;100822.29;;;16.70;16.39
70571;BME280;58135;50.948;-1.458;2022-10-16T11:47:09;100823.04;;;17.00;16.33
70571;BME280;58135;50.948;-1.458;2022-10-16T11:49:26;100817.71;;;17.24;16.30
70571;BME280;58135;50.948;-1.458;2022-10-16T11:51:58;100802.88;;;16.58;16.13
70571;BME280;58135;50.948;-1.458;2022-10-16T11:54:21;100796.79;;;17.57;16.34
70571;BME280;58135;50.948;-1.458;2022-10-16T11:56:43;100796.95;;;18.31;16.36
70571;BME280;58135;50.948;-1.458;2022-10-16T11:59:13;100799.33;;;17.40;16.27
70571;BME280;58135;50.948;-1.458;2022-10-16T12:01:38;100796.58;;;16.51;16.29
70571;BME280;58135;50.948;-1.458;2022-10-16T12:04:06;100791.81;;;17.44;15.96
70571;BME280;58135;50.948;-1.458;2022-10-16T12:06:31;100783.13;;;15.76;15.98
70571;BME280;58135;50.948;-1.458;2022-10-16T12:08:51;100787.29;;;16.49;15.81
70571;BME280;58135;50.948;-1.458;2022-10-16T12:11:24;100794.56;;;15.25;15.39
70571;BME280;58135;50.948;-1.458;2022-10-16T12:13:42;100793.73;;;16.91;16.00
70571;BME280;58135;50.948;-1.458;2022-10-16T12:16:20;100787.48;;;17.15;15.96
70571;BME280;58135;50.948;-1.458;2022-10-16T12:18:31;100787.46;;;15.68;16.05
70571;BME280;58135;50.948;-1.458;2022-10-16T12:20:58;100787.29;;;17.03;16.05
70571;BME280;58135;50.948;-1.458;2022-10-16T12:23:22;100784.22;;;15.73;16.30
70571;BME280;58135;50.948;-1.458;2022-10-16T12:25:53;100784.42;;;18.82;16.12
70571;BME280;58135;50.948;-1.458;2022-10-16T12:28:20;100784.20;;;16.85;15.58
70571;BME280;58135;50.948;-1.458;2022-10-16T12:30:41;100779.59;;;16.01;15.55
70571;BME280;58135;50.948;-1.458;2022-10-16T12:33:06;100777.27;;;17.57;14.92